sensor_id;sensor_type;location;lat;lon;timestamp;pressure;altitude;pressure_sealevel;temperature;humidity
250;BME280;109;19.806;-70.704;2023-10-31T00:00:20;100920.22;;;27.96;47.54
250;BME280;109;19.806;-70.704;2023-10-31T00:02:47;100918.38;;;27.76;47.48
250;BME280;109;19.806;-70.704;2023-10-31T00:05:13;100925.16;;;27.82;47.89
250;BME280;109;19.806;-70.704;2023-10-31T00:07:40;100931.88;;;27.87;47.90
250;BME280;109;19.806;-70.704;2023-10-31T00:10:07;100920.84;;;27.79;47.38
250;BME280;109;19.806;-70.704;2023-10-31T00:12:33;100919.25;;;27.77;47.70
250;BME280;109;19.806;-70.704;2023-10-31T00:15:00;100924.41;;;27.80;47.51
250;BME280;109;19.806;-70.704;2023-10-31T00:17:26;100923.44;;;27.81;47.70
250;BME280;109;19.806;-70.704;2023-10-31T00:19:53;100924.00;;;27.84;47.81
250;BME280;109;19.806;-70.704;2023-10-31T00:22:19;100931.91;;;27.97;47.60
250;BME280;109;19.806;-70.704;2023-10-31T00:24:45;100919.50;;;27.94;47.58
250;BME280;109;19.806;-70.704;2023-10-31T00:27:12;100917.19;;;27.90;47.60
250;BME280;109;19.806;-70.704;2023-10-31T00:29:38;100916.06;;;27.92;47.48
250;BME280;109;19.806;-70.704;2023-10-31T00:32:13;100927.78;;;27.93;47.62
250;BME280;109;19.806;-70.704;2023-10-31T07:02:04;100787.72;;;26.67;50.60
250;BME280;109;19.806;-70.704;2023-10-31T07:04:53;100781.59;;;26.54;50.75
250;BME280;109;19.806;-70.704;2023-10-31T07:07:39;100783.44;;;26.53;50.73
250;BME280;109;19.806;-70.704;2023-10-31T10:33:52;100909.66;;;26.66;49.79
250;BME280;109;19.806;-70.704;2023-10-31T10:36:40;100911.38;;;26.67;49.74
250;BME280;109;19.806;-70.704;2023-10-31T10:39:26;100920.47;;;26.66;50.05
250;BME280;109;19.806;-70.704;2023-10-31T10:42:17;100924.03;;;26.66;49.96
250;BME280;109;19.806;-70.704;2023-10-31T10:52:29;100943.59;;;26.81;50.00
250;BME280;109;19.806;-70.704;2023-10-31T10:55:13;100939.16;;;26.80;49.88
250;BME280;109;19.806;-70.704;2023-10-31T10:58:01;100939.66;;;26.74;49.88
250;BME280;109;19.806;-70.704;2023-10-31T11:00:31;100947.28;;;26.69;50.03
250;BME280;109;19.806;-70.704;2023-10-31T11:02:58;100952.59;;;26.70;50.19
250;BME280;109;19.806;-70.704;2023-10-31T11:05:25;100951.97;;;26.78;50.30
250;BME280;109;19.806;-70.704;2023-10-31T11:07:53;100953.44;;;26.82;49.88
250;BME280;109;19.806;-70.704;2023-10-31T11:10:21;100949.00;;;26.81;49.85
250;BME280;109;19.806;-70.704;2023-10-31T11:12:48;100952.44;;;26.61;50.19
250;BME280;109;19.806;-70.704;2023-10-31T11:15:17;100960.56;;;26.61;50.50
250;BME280;109;19.806;-70.704;2023-10-31T11:17:45;100964.78;;;26.76;50.24
250;BME280;109;19.806;-70.704;2023-10-31T11:20:15;100962.66;;;26.79;50.07
250;BME280;109;19.806;-70.704;2023-10-31T11:22:46;100969.44;;;26.74;50.17
250;BME280;109;19.806;-70.704;2023-10-31T11:25:21;100965.72;;;26.97;49.50
250;BME280;109;19.806;-70.704;2023-10-31T11:27:53;100956.38;;;26.90;49.51
250;BME280;109;19.806;-70.704;2023-10-31T11:30:30;100956.81;;;27.06;49.50
250;BME280;109;19.806;-70.704;2023-10-31T11:32:59;100963.38;;;27.04;49.58
250;BME280;109;19.806;-70.704;2023-10-31T11:35:30;100967.31;;;27.11;49.83
250;BME280;109;19.806;-70.704;2023-10-31T11:38:04;100972.59;;;27.01;49.64
250;BME280;109;19.806;-70.704;2023-10-31T11:40:38;100960.91;;;27.01;49.78
250;BME280;109;19.806;-70.704;2023-10-31T11:43:13;100964.81;;;27.08;50.04
250;BME280;109;19.806;-70.704;2023-10-31T11:45:42;100970.03;;;27.00;49.72
250;BME280;109;19.806;-70.704;2023-10-31T11:48:15;100974.78;;;27.30;49.56
250;BME280;109;19.806;-70.704;2023-10-31T11:50:42;100980.41;;;27.38;49.35
250;BME280;109;19.806;-70.704;2023-10-31T11:53:10;100986.16;;;27.55;49.15
250;BME280;109;19.806;-70.704;2023-10-31T11:55:41;100985.31;;;27.76;48.74
250;BME280;109;19.806;-70.704;2023-10-31T11:58:26;100995.38;;;27.85;48.65
250;BME280;109;19.806;-70.704;2023-10-31T12:01:04;100990.78;;;27.85;48.81
250;BME280;109;19.806;-70.704;2023-10-31T12:03:42;100999.59;;;27.78;48.86
250;BME280;109;19.806;-70.704;2023-10-31T12:06:09;100997.56;;;27.91;48.57
250;BME280;109;19.806;-70.704;2023-10-31T12:08:38;100992.81;;;28.25;48.27
250;BME280;109;19.806;-70.704;2023-10-31T12:11:18;100994.34;;;28.18;48.37
250;BME280;109;19.806;-70.704;2023-10-31T12:14:00;101001.72;;;28.37;47.76
250;BME280;109;19.806;-70.704;2023-10-31T12:16:29;100997.75;;;28.41;47.75
250;BME280;109;19.806;-70.704;2023-10-31T12:18:57;101011.59;;;28.58;47.57
250;BME280;109;19.806;-70.704;2023-10-31T12:21:42;101003.22;;;28.20;47.78
250;BME280;109;19.806;-70.704;2023-10-31T12:24:10;101011.19;;;28.21;47.96
250;BME280;109;19.806;-70.704;2023-10-31T12:26:38;101001.81;;;28.46;47.31
250;BME280;109;19.806;-70.704;2023-10-31T12:29:11;101001.53;;;28.49;47.29
250;BME280;109;19.806;-70.704;2023-10-31T12:31:55;101007.28;;;28.56;47.37
250;BME280;109;19.806;-70.704;2023-10-31T12:34:24;101001.25;;;28.52;47.26
250;BME280;109;19.806;-70.704;2023-10-31T12:36:52;101002.25;;;28.51;47.22
250;BME280;109;19.806;-70.704;2023-10-31T12:39:25;100999.03;;;28.67;46.95
250;BME280;109;19.806;-70.704;2023-10-31T12:41:52;101013.47;;;28.68;47.06
250;BME280;109;19.806;-70.704;2023-10-31T12:44:26;101007.44;;;28.64;47.31
250;BME280;109;19.806;-70.704;2023-10-31T12:46:53;101003.88;;;28.63;47.17
250;BME280;109;19.806;-70.704;2023-10-31T12:49:20;101010.50;;;28.71;46.75
250;BME280;109;19.806;-70.704;2023-10-31T12:54:34;101018.53;;;28.51;46.86
250;BME280;109;19.806;-70.704;2023-10-31T12:57:05;101025.84;;;28.60;46.84
250;BME280;109;19.806;-70.704;2023-10-31T12:59:33;101025.03;;;28.90;46.90
250;BME280;109;19.806;-70.704;2023-10-31T13:02:00;101018.09;;;29.17;46.94
250;BME280;109;19.806;-70.704;2023-10-31T13:04:31;101030.66;;;29.18;46.71
250;BME280;109;19.806;-70.704;2023-10-31T13:07:06;101037.50;;;29.03;46.92
250;BME280;109;19.806;-70.704;2023-10-31T13:09:35;101038.63;;;29.00;46.75
250;BME280;109;19.806;-70.704;2023-10-31T13:12:03;101040.09;;;29.14;46.56
250;BME280;109;19.806;-70.704;2023-10-31T13:14:30;101038.59;;;29.30;46.54
250;BME280;109;19.806;-70.704;2023-10-31T13:16:57;101046.47;;;29.33;46.28
250;BME280;109;19.806;-70.704;2023-10-31T13:19:24;101042.22;;;29.60;45.83
250;BME280;109;19.806;-70.704;2023-10-31T13:21:50;101043.63;;;29.64;45.19
250;BME280;109;19.806;-70.704;2023-10-31T13:24:17;101045.25;;;29.76;45.33
250;BME280;109;19.806;-70.704;2023-10-31T13:26:45;101046.25;;;29.75;45.35
250;BME280;109;19.806;-70.704;2023-10-31T13:29:19;101041.94;;;29.92;45.60
250;BME280;109;19.806;-70.704;2023-10-31T13:31:45;101043.69;;;29.74;45.45
250;BME280;109;19.806;-70.704;2023-10-31T13:34:12;101038.81;;;30.16;45.17
250;BME280;109;19.806;-70.704;2023-10-31T13:36:38;101040.94;;;30.12;45.17
250;BME280;109;19.806;-70.704;2023-10-31T13:39:05;101042.50;;;30.24;45.37
250;BME280;109;19.806;-70.704;2023-10-31T13:41:32;101046.78;;;30.08;44.97
250;BME280;109;19.806;-70.704;2023-10-31T13:43:59;101044.22;;;30.25;44.89
250;BME280;109;19.806;-70.704;2023-10-31T13:46:25;101043.41;;;30.15;45.10
250;BME280;109;19.806;-70.704;2023-10-31T13:48:51;101046.94;;;30.25;44.82
250;BME280;109;19.806;-70.704;2023-10-31T13:51:18;101048.66;;;30.26;44.89
250;BME280;109;19.806;-70.704;2023-10-31T13:53:45;101058.06;;;30.51;44.96
250;BME280;109;19.806;-70.704;2023-10-31T13:56:11;101052.75;;;30.50;44.60
250;BME280;109;19.806;-70.704;2023-10-31T13:58:38;101054.91;;;30.46;44.91
250;BME280;109;19.806;-70.704;2023-10-31T14:01:04;101052.81;;;30.21;45.34
250;BME280;109;19.806;-70.704;2023-10-31T14:03:32;101049.94;;;30.32;45.26
250;BME280;109;19.806;-70.704;2023-10-31T14:05:58;101053.66;;;30.31;45.49
250;BME280;109;19.806;-70.704;2023-10-31T14:08:25;101052.25;;;30.27;45.54
250;BME280;109;19.806;-70.704;2023-10-31T14:10:51;101054.09;;;30.36;45.32
250;BME280;109;19.806;-70.704;2023-10-31T14:13:18;101055.66;;;30.29;44.71
250;BME280;109;19.806;-70.704;2023-10-31T14:15:46;101053.66;;;30.41;45.15
250;BME280;109;19.806;-70.704;2023-10-31T14:18:12;101058.34;;;30.48;45.11
250;BME280;109;19.806;-70.704;2023-10-31T14:20:41;101053.75;;;30.58;44.62
250;BME280;109;19.806;-70.704;2023-10-31T14:23:08;101056.47;;;30.49;45.22
250;BME280;109;19.806;-70.704;2023-10-31T14:25:34;101055.91;;;30.45;45.33
250;BME280;109;19.806;-70.704;2023-10-31T14:28:01;101056.53;;;30.39;44.89
250;BME280;109;19.806;-70.704;2023-10-31T14:30:27;101064.72;;;30.00;45.15
250;BME280;109;19.806;-70.704;2023-10-31T14:32:53;101069.28;;;29.90;45.53
250;BME280;109;19.806;-70.704;2023-10-31T14:35:20;101063.16;;;29.88;45.44
250;BME280;109;19.806;-70.704;2023-10-31T14:37:46;101062.97;;;30.09;45.26
250;BME280;109;19.806;-70.704;2023-10-31T14:40:13;101055.97;;;30.26;45.23
250;BME280;109;19.806;-70.704;2023-10-31T14:42:39;101050.81;;;30.23;44.34
250;BME280;109;19.806;-70.704;2023-10-31T14:45:06;101049.19;;;30.49;43.55
250;BME280;109;19.806;-70.704;2023-10-31T14:47:33;101045.44;;;30.50;43.53
250;BME280;109;19.806;-70.704;2023-10-31T14:49:59;101042.31;;;30.45;44.38
250;BME280;109;19.806;-70.704;2023-10-31T14:52:25;101048.81;;;30.05;44.60
250;BME280;109;19.806;-70.704;2023-10-31T14:54:52;101045.94;;;30.07;44.32
250;BME280;109;19.806;-70.704;2023-10-31T14:57:18;101039.31;;;30.29;44.55
250;BME280;109;19.806;-70.704;2023-10-31T14:59:45;101033.63;;;30.22;43.88
250;BME280;109;19.806;-70.704;2023-10-31T15:02:12;101043.44;;;30.43;44.51
250;BME280;109;19.806;-70.704;2023-10-31T15:04:39;101035.50;;;30.22;44.13
250;BME280;109;19.806;-70.704;2023-10-31T15:07:05;101040.91;;;30.41;44.38
250;BME280;109;19.806;-70.704;2023-10-31T15:09:31;101041.66;;;30.70;43.32
250;BME280;109;19.806;-70.704;2023-10-31T15:11:58;101045.63;;;30.86;43.76
250;BME280;109;19.806;-70.704;2023-10-31T15:14:24;101046.72;;;30.65;43.98
250;BME280;109;19.806;-70.704;2023-10-31T15:16:51;101043.16;;;30.55;43.97
250;BME280;109;19.806;-70.704;2023-10-31T15:19:17;101044.28;;;30.62;43.92
250;BME280;109;19.806;-70.704;2023-10-31T15:21:44;101032.03;;;30.76;43.96
250;BME280;109;19.806;-70.704;2023-10-31T15:24:10;101033.00;;;30.85;42.48
250;BME280;109;19.806;-70.704;2023-10-31T15:26:38;101031.41;;;30.92;43.13
250;BME280;109;19.806;-70.704;2023-10-31T15:29:08;101033.50;;;30.70;42.91
250;BME280;109;19.806;-70.704;2023-10-31T15:31:34;101030.97;;;30.59;43.71
250;BME280;109;19.806;-70.704;2023-10-31T15:34:02;101026.38;;;30.60;43.92
250;BME280;109;19.806;-70.704;2023-10-31T15:36:29;101032.84;;;30.49;43.76
250;BME280;109;19.806;-70.704;2023-10-31T15:38:55;101026.03;;;30.72;44.23
250;BME280;109;19.806;-70.704;2023-10-31T15:41:22;101022.50;;;30.53;44.01
250;BME280;109;19.806;-70.704;2023-10-31T15:43:49;101022.78;;;30.59;43.79
250;BME280;109;19.806;-70.704;2023-10-31T15:46:16;101014.94;;;30.84;43.33
250;BME280;109;19.806;-70.704;2023-10-31T15:48:43;101011.50;;;30.82;43.50
250;BME280;109;19.806;-70.704;2023-10-31T15:51:09;101014.03;;;31.20;43.58
250;BME280;109;19.806;-70.704;2023-10-31T15:53:36;101001.25;;;31.03;42.63
250;BME280;109;19.806;-70.704;2023-10-31T15:56:03;101000.25;;;31.22;43.57
250;BME280;109;19.806;-70.704;2023-10-31T15:58:35;100992.41;;;30.91;43.09
250;BME280;109;19.806;-70.704;2023-10-31T16:01:02;100985.69;;;30.86;42.99
250;BME280;109;19.806;-70.704;2023-10-31T16:03:29;100989.63;;;30.73;43.79
250;BME280;109;19.806;-70.704;2023-10-31T16:05:55;100981.16;;;30.94;43.89
250;BME280;109;19.806;-70.704;2023-10-31T16:08:22;100975.06;;;30.83;43.13
250;BME280;109;19.806;-70.704;2023-10-31T16:10:48;100976.06;;;30.91;42.74
250;BME280;109;19.806;-70.704;2023-10-31T16:13:15;100963.84;;;30.68;42.37
250;BME280;109;19.806;-70.704;2023-10-31T16:15:41;100963.59;;;30.61;43.17
250;BME280;109;19.806;-70.704;2023-10-31T16:18:08;100970.25;;;30.77;43.59
250;BME280;109;19.806;-70.704;2023-10-31T16:20:34;100956.72;;;30.85;42.90
250;BME280;109;19.806;-70.704;2023-10-31T16:23:01;100957.66;;;30.76;43.58
250;BME280;109;19.806;-70.704;2023-10-31T16:25:27;100946.03;;;30.73;42.91
250;BME280;109;19.806;-70.704;2023-10-31T16:27:54;100935.63;;;30.87;43.41
250;BME280;109;19.806;-70.704;2023-10-31T16:30:20;100936.94;;;30.65;43.63
250;BME280;109;19.806;-70.704;2023-10-31T16:32:47;100932.94;;;30.59;44.02
250;BME280;109;19.806;-70.704;2023-10-31T16:35:13;100927.47;;;30.59;44.28
250;BME280;109;19.806;-70.704;2023-10-31T16:37:39;100928.50;;;30.58;43.79
250;BME280;109;19.806;-70.704;2023-10-31T16:40:07;100918.56;;;30.30;44.51
250;BME280;109;19.806;-70.704;2023-10-31T16:42:33;100918.75;;;30.28;44.22
250;BME280;109;19.806;-70.704;2023-10-31T16:45:00;100922.91;;;30.60;43.67
250;BME280;109;19.806;-70.704;2023-10-31T16:47:27;100907.00;;;30.55;43.67
250;BME280;109;19.806;-70.704;2023-10-31T16:49:53;100912.63;;;30.44;44.22
250;BME280;109;19.806;-70.704;2023-10-31T16:52:20;100905.47;;;30.43;43.92
250;BME280;109;19.806;-70.704;2023-10-31T16:54:49;100899.25;;;30.60;44.11
250;BME280;109;19.806;-70.704;2023-10-31T16:57:16;100900.53;;;30.84;44.12
250;BME280;109;19.806;-70.704;2023-10-31T16:59:42;100889.78;;;30.82;42.99
250;BME280;109;19.806;-70.704;2023-10-31T17:02:09;100885.66;;;30.78;43.71
250;BME280;109;19.806;-70.704;2023-10-31T17:04:36;100883.41;;;30.91;43.15
250;BME280;109;19.806;-70.704;2023-10-31T17:07:02;100878.50;;;30.95;43.17
250;BME280;109;19.806;-70.704;2023-10-31T17:09:29;100869.66;;;30.93;43.26
250;BME280;109;19.806;-70.704;2023-10-31T17:11:55;100866.59;;;30.78;43.75
250;BME280;109;19.806;-70.704;2023-10-31T17:14:22;100865.81;;;30.86;44.09
250;BME280;109;19.806;-70.704;2023-10-31T17:16:49;100860.81;;;30.63;43.92
250;BME280;109;19.806;-70.704;2023-10-31T17:19:16;100851.19;;;30.42;44.19
250;BME280;109;19.806;-70.704;2023-10-31T17:21:42;100840.44;;;30.40;44.18
250;BME280;109;19.806;-70.704;2023-10-31T17:24:09;100842.41;;;30.48;44.77
250;BME280;109;19.806;-70.704;2023-10-31T17:26:36;100834.94;;;30.22;44.57
250;BME280;109;19.806;-70.704;2023-10-31T17:29:02;100834.28;;;30.38;44.90
250;BME280;109;19.806;-70.704;2023-10-31T17:31:29;100837.78;;;30.58;45.02
250;BME280;109;19.806;-70.704;2023-10-31T17:33:56;100838.00;;;30.82;45.27
250;BME280;109;19.806;-70.704;2023-10-31T17:36:23;100828.13;;;30.81;44.47
250;BME280;109;19.806;-70.704;2023-10-31T17:38:49;100831.91;;;30.80;44.01
250;BME280;109;19.806;-70.704;2023-10-31T17:41:16;100829.53;;;30.85;43.61
250;BME280;109;19.806;-70.704;2023-10-31T17:43:42;100823.78;;;30.88;43.65
250;BME280;109;19.806;-70.704;2023-10-31T17:46:09;100821.16;;;30.79;44.44
250;BME280;109;19.806;-70.704;2023-10-31T17:48:35;100817.88;;;30.75;45.04
250;BME280;109;19.806;-70.704;2023-10-31T17:51:03;100808.13;;;30.72;45.37
250;BME280;109;19.806;-70.704;2023-10-31T17:53:30;100813.59;;;30.45;45.25
250;BME280;109;19.806;-70.704;2023-10-31T17:55:56;100812.41;;;30.57;45.53
250;BME280;109;19.806;-70.704;2023-10-31T17:58:23;100813.75;;;30.44;44.97
250;BME280;109;19.806;-70.704;2023-10-31T18:00:49;100814.38;;;30.37;45.23
250;BME280;109;19.806;-70.704;2023-10-31T18:03:15;100804.81;;;30.33;45.50
250;BME280;109;19.806;-70.704;2023-10-31T18:05:42;100799.03;;;30.64;45.25
250;BME280;109;19.806;-70.704;2023-10-31T18:08:08;100793.03;;;30.60;45.27
250;BME280;109;19.806;-70.704;2023-10-31T18:10:35;100789.25;;;30.44;45.50
250;BME280;109;19.806;-70.704;2023-10-31T18:13:01;100788.53;;;30.24;45.06
250;BME280;109;19.806;-70.704;2023-10-31T18:15:28;100783.06;;;30.51;45.22
250;BME280;109;19.806;-70.704;2023-10-31T18:17:54;100777.16;;;30.73;45.32
250;BME280;109;19.806;-70.704;2023-10-31T18:20:21;100775.00;;;30.59;45.53
250;BME280;109;19.806;-70.704;2023-10-31T18:22:47;100768.81;;;30.12;45.48
250;BME280;109;19.806;-70.704;2023-10-31T18:25:14;100769.31;;;30.70;44.95
250;BME280;109;19.806;-70.704;2023-10-31T18:27:41;100761.59;;;30.84;44.79
250;BME280;109;19.806;-70.704;2023-10-31T18:30:09;100757.25;;;30.91;45.16
250;BME280;109;19.806;-70.704;2023-10-31T18:32:36;100752.66;;;30.56;45.71
250;BME280;109;19.806;-70.704;2023-10-31T18:35:03;100756.78;;;30.78;45.02
250;BME280;109;19.806;-70.704;2023-10-31T18:37:30;100748.31;;;30.63;45.02
250;BME280;109;19.806;-70.704;2023-10-31T18:39:59;100751.59;;;30.66;45.21
250;BME280;109;19.806;-70.704;2023-10-31T18:42:25;100737.72;;;30.60;44.74
250;BME280;109;19.806;-70.704;2023-10-31T18:44:52;100732.72;;;30.37;45.32
250;BME280;109;19.806;-70.704;2023-10-31T18:47:18;100724.06;;;30.42;45.36
250;BME280;109;19.806;-70.704;2023-10-31T18:49:45;100734.09;;;30.24;45.30
250;BME280;109;19.806;-70.704;2023-10-31T18:52:11;100725.16;;;30.04;45.65
250;BME280;109;19.806;-70.704;2023-10-31T18:54:38;100728.00;;;30.12;45.44
250;BME280;109;19.806;-70.704;2023-10-31T18:57:04;100735.19;;;30.03;45.86
250;BME280;109;19.806;-70.704;2023-10-31T18:59:30;100728.28;;;30.36;45.20
250;BME280;109;19.806;-70.704;2023-10-31T19:01:57;100726.50;;;30.27;45.28
250;BME280;109;19.806;-70.704;2023-10-31T19:04:25;100729.75;;;30.31;45.00
250;BME280;109;19.806;-70.704;2023-10-31T19:06:52;100729.50;;;30.42;44.44
250;BME280;109;19.806;-70.704;2023-10-31T19:09:19;100737.53;;;30.26;44.74
250;BME280;109;19.806;-70.704;2023-10-31T19:11:46;100737.97;;;30.21;45.22
250;BME280;109;19.806;-70.704;2023-10-31T19:14:13;100734.56;;;30.19;45.29
250;BME280;109;19.806;-70.704;2023-10-31T19:16:40;100734.16;;;29.87;45.56
250;BME280;109;19.806;-70.704;2023-10-31T19:19:06;100735.41;;;30.20;45.59
250;BME280;109;19.806;-70.704;2023-10-31T19:21:33;100734.28;;;30.13;45.29
250;BME280;109;19.806;-70.704;2023-10-31T19:24:00;100737.25;;;29.92;45.30
250;BME280;109;19.806;-70.704;2023-10-31T19:26:27;100729.75;;;30.13;45.40
250;BME280;109;19.806;-70.704;2023-10-31T19:28:53;100729.06;;;30.01;45.89
250;BME280;109;19.806;-70.704;2023-10-31T19:31:20;100723.66;;;29.92;45.53
250;BME280;109;19.806;-70.704;2023-10-31T19:33:47;100731.78;;;29.64;46.26
250;BME280;109;19.806;-70.704;2023-10-31T19:36:15;100727.53;;;29.62;46.01
250;BME280;109;19.806;-70.704;2023-10-31T19:38:43;100734.31;;;29.85;46.28
250;BME280;109;19.806;-70.704;2023-10-31T19:41:09;100731.66;;;29.76;46.49
250;BME280;109;19.806;-70.704;2023-10-31T19:43:36;100731.16;;;29.90;46.05
250;BME280;109;19.806;-70.704;2023-10-31T19:46:03;100727.72;;;29.88;46.47
250;BME280;109;19.806;-70.704;2023-10-31T19:48:30;100728.94;;;29.76;46.51
250;BME280;109;19.806;-70.704;2023-10-31T19:50:56;100726.53;;;29.90;46.24
250;BME280;109;19.806;-70.704;2023-10-31T19:53:22;100730.22;;;29.72;46.78
250;BME280;109;19.806;-70.704;2023-10-31T19:55:49;100723.88;;;29.81;46.67
250;BME280;109;19.806;-70.704;2023-10-31T19:58:16;100711.75;;;29.75;46.61
250;BME280;109;19.806;-70.704;2023-10-31T20:00:44;100719.00;;;29.84;46.61
250;BME280;109;19.806;-70.704;2023-10-31T20:03:11;100713.59;;;29.65;46.98
250;BME280;109;19.806;-70.704;2023-10-31T20:05:38;100705.16;;;29.68;46.91
250;BME280;109;19.806;-70.704;2023-10-31T20:08:04;100712.50;;;29.58;47.33
250;BME280;109;19.806;-70.704;2023-10-31T20:10:31;100713.91;;;29.72;46.88
250;BME280;109;19.806;-70.704;2023-10-31T20:12:57;100717.72;;;30.06;45.98
250;BME280;109;19.806;-70.704;2023-10-31T20:15:24;100712.94;;;29.90;45.78
250;BME280;109;19.806;-70.704;2023-10-31T20:17:50;100711.78;;;30.20;45.64
250;BME280;109;19.806;-70.704;2023-10-31T20:20:17;100713.75;;;30.00;46.17
250;BME280;109;19.806;-70.704;2023-10-31T20:22:44;100706.25;;;30.30;45.84
250;BME280;109;19.806;-70.704;2023-10-31T20:25:11;100713.13;;;30.07;46.49
250;BME280;109;19.806;-70.704;2023-10-31T20:27:37;100715.97;;;30.32;46.33
250;BME280;109;19.806;-70.704;2023-10-31T20:30:05;100724.25;;;30.41;46.31
250;BME280;109;19.806;-70.704;2023-10-31T20:32:32;100713.88;;;30.44;45.92
250;BME280;109;19.806;-70.704;2023-10-31T20:35:02;100716.50;;;30.18;46.13
250;BME280;109;19.806;-70.704;2023-10-31T20:37:28;100724.88;;;30.07;46.31
250;BME280;109;19.806;-70.704;2023-10-31T20:39:55;100722.22;;;30.25;46.03
250;BME280;109;19.806;-70.704;2023-10-31T20:42:22;100717.41;;;30.36;46.12
250;BME280;109;19.806;-70.704;2023-10-31T20:44:48;100718.56;;;30.34;45.62
250;BME280;109;19.806;-70.704;2023-10-31T20:47:15;100723.53;;;30.21;46.24
250;BME280;109;19.806;-70.704;2023-10-31T20:49:42;100722.13;;;29.89;46.64
250;BME280;109;19.806;-70.704;2023-10-31T20:52:08;100729.22;;;30.00;46.66
250;BME280;109;19.806;-70.704;2023-10-31T20:54:35;100734.84;;;30.16;46.15
250;BME280;109;19.806;-70.704;2023-10-31T20:57:02;100726.88;;;30.05;46.03
250;BME280;109;19.806;-70.704;2023-10-31T20:59:29;100735.41;;;29.92;46.53
250;BME280;109;19.806;-70.704;2023-10-31T21:01:55;100739.31;;;29.90;46.42
250;BME280;109;19.806;-70.704;2023-10-31T21:04:22;100737.88;;;29.86;46.70
250;BME280;109;19.806;-70.704;2023-10-31T21:06:49;100739.09;;;29.64;47.12
250;BME280;109;19.806;-70.704;2023-10-31T21:09:16;100734.59;;;29.82;47.02
250;BME280;109;19.806;-70.704;2023-10-31T21:11:42;100727.38;;;29.73;47.42
250;BME280;109;19.806;-70.704;2023-10-31T21:14:08;100733.09;;;29.60;47.27
250;BME280;109;19.806;-70.704;2023-10-31T21:16:35;100733.97;;;29.51;47.36
250;BME280;109;19.806;-70.704;2023-10-31T21:19:01;100742.13;;;29.61;47.39
250;BME280;109;19.806;-70.704;2023-10-31T21:21:28;100737.03;;;29.39;47.89
250;BME280;109;19.806;-70.704;2023-10-31T21:23:54;100741.50;;;29.30;48.07
250;BME280;109;19.806;-70.704;2023-10-31T21:26:20;100744.38;;;29.19;47.86
250;BME280;109;19.806;-70.704;2023-10-31T21:28:47;100746.50;;;29.34;48.04
250;BME280;109;19.806;-70.704;2023-10-31T21:31:13;100752.22;;;29.22;48.03
250;BME280;109;19.806;-70.704;2023-10-31T21:33:40;100755.59;;;29.53;47.57
250;BME280;109;19.806;-70.704;2023-10-31T21:36:10;100761.34;;;29.40;47.41
250;BME280;109;19.806;-70.704;2023-10-31T21:38:37;100774.38;;;29.46;47.56
250;BME280;109;19.806;-70.704;2023-10-31T21:41:04;100770.53;;;29.29;47.69
250;BME280;109;19.806;-70.704;2023-10-31T21:43:34;100774.13;;;29.11;48.17
250;BME280;109;19.806;-70.704;2023-10-31T21:46:01;100772.13;;;29.22;47.74
250;BME280;109;19.806;-70.704;2023-10-31T21:48:27;100777.84;;;29.29;47.74
250;BME280;109;19.806;-70.704;2023-10-31T21:50:54;100776.69;;;29.03;48.05
250;BME280;109;19.806;-70.704;2023-10-31T21:55:46;100779.00;;;28.97;48.13
250;BME280;109;19.806;-70.704;2023-10-31T21:58:13;100784.72;;;28.85;48.28
250;BME280;109;19.806;-70.704;2023-10-31T22:00:39;100783.00;;;28.84;48.51
250;BME280;109;19.806;-70.704;2023-10-31T22:03:06;100774.72;;;28.95;48.35
250;BME280;109;19.806;-70.704;2023-10-31T22:05:33;100777.16;;;28.98;48.33
250;BME280;109;19.806;-70.704;2023-10-31T22:07:59;100780.00;;;28.87;48.75
250;BME280;109;19.806;-70.704;2023-10-31T22:10:25;100783.72;;;29.05;48.15
250;BME280;109;19.806;-70.704;2023-10-31T22:12:52;100793.00;;;29.31;47.63
250;BME280;109;19.806;-70.704;2023-10-31T22:15:24;100804.16;;;29.28;47.97
250;BME280;109;19.806;-70.704;2023-10-31T22:17:51;100808.72;;;29.47;47.88
250;BME280;109;19.806;-70.704;2023-10-31T22:20:17;100807.84;;;29.47;47.37
250;BME280;109;19.806;-70.704;2023-10-31T22:22:44;100810.66;;;29.55;47.22
250;BME280;109;19.806;-70.704;2023-10-31T22:25:10;100810.81;;;29.63;47.13
250;BME280;109;19.806;-70.704;2023-10-31T22:27:38;100811.28;;;29.49;47.28
250;BME280;109;19.806;-70.704;2023-10-31T22:30:05;100810.50;;;29.76;46.64
250;BME280;109;19.806;-70.704;2023-10-31T22:32:33;100809.75;;;29.83;46.95
250;BME280;109;19.806;-70.704;2023-10-31T22:35:00;100803.66;;;29.62;46.57
250;BME280;109;19.806;-70.704;2023-10-31T22:37:27;100811.56;;;29.46;47.20
250;BME280;109;19.806;-70.704;2023-10-31T22:39:53;100799.53;;;29.39;47.09
250;BME280;109;19.806;-70.704;2023-10-31T22:42:20;100807.28;;;29.14;47.29
250;BME280;109;19.806;-70.704;2023-10-31T22:44:46;100806.59;;;29.31;47.06
250;BME280;109;19.806;-70.704;2023-10-31T22:47:13;100803.41;;;29.46;47.30
250;BME280;109;19.806;-70.704;2023-10-31T22:49:39;100811.81;;;29.52;47.09
250;BME280;109;19.806;-70.704;2023-10-31T22:52:06;100811.13;;;29.50;46.83
250;BME280;109;19.806;-70.704;2023-10-31T22:54:33;100813.59;;;29.34;46.09
250;BME280;109;19.806;-70.704;2023-10-31T22:56:59;100817.00;;;29.26;46.37
250;BME280;109;19.806;-70.704;2023-10-31T22:59:26;100823.75;;;29.22;46.15
250;BME280;109;19.806;-70.704;2023-10-31T23:01:53;100832.44;;;29.26;45.65
250;BME280;109;19.806;-70.704;2023-10-31T23:04:22;100819.16;;;29.13;45.47
250;BME280;109;19.806;-70.704;2023-10-31T23:06:49;100817.03;;;29.07;45.70
250;BME280;109;19.806;-70.704;2023-10-31T23:09:19;100823.91;;;29.11;45.79
250;BME280;109;19.806;-70.704;2023-10-31T23:11:46;100811.28;;;29.20;45.49
250;BME280;109;19.806;-70.704;2023-10-31T23:14:14;100804.03;;;29.11;45.12
250;BME280;109;19.806;-70.704;2023-10-31T23:16:41;100810.88;;;29.05;44.86